createdAt,value
2023-01-31T00:04:07.478Z,22.6
2023-01-31T00:09:30.744Z,22.7
2023-01-31T00:14:53.836Z,22.7
2023-01-31T00:20:17.195Z,22.7
2023-01-31T00:25:41.004Z,22.7
2023-01-31T00:31:04.564Z,22.7
2023-01-31T00:36:27.401Z,22.7
2023-01-31T00:41:34.939Z,22.8
2023-01-31T00:46:42.347Z,22.7
2023-01-31T00:52:05.392Z,22.8
2023-01-31T00:57:28.894Z,22.8
2023-01-31T01:02:52.851Z,22.8
2023-01-31T01:08:15.772Z,22.8
2023-01-31T01:13:38.675Z,22.8
2023-01-31T01:19:03.463Z,22.8
2023-01-31T01:24:26.760Z,22.8
2023-01-31T01:29:50.287Z,22.8
2023-01-31T01:34:58.389Z,22.8
2023-01-31T01:40:22.616Z,22.8
2023-01-31T01:45:30.746Z,22.8
2023-01-31T01:50:39.141Z,22.8
2023-01-31T01:55:47.373Z,22.8
2023-01-31T02:01:08.855Z,22.8
2023-01-31T02:06:31.771Z,22.8
2023-01-31T02:11:54.997Z,22.8
2023-01-31T02:17:19.318Z,22.8
2023-01-31T02:22:10.760Z,22.8
2023-01-31T02:27:32.991Z,22.8
2023-01-31T02:32:56.209Z,22.9
2023-01-31T02:38:19.042Z,22.9
2023-01-31T02:43:25.268Z,22.8
2023-01-31T02:48:48.579Z,22.9
2023-01-31T02:54:11.227Z,22.9
2023-01-31T02:59:34.215Z,22.9
2023-01-31T03:04:58.567Z,22.9
2023-01-31T03:10:21.960Z,22.9
2023-01-31T03:15:44.242Z,22.9
2023-01-31T03:20:51.572Z,22.9
2023-01-31T03:26:00.130Z,22.9
2023-01-31T03:31:23.376Z,22.9
2023-01-31T03:36:46.266Z,22.9
2023-01-31T03:42:09.951Z,22.9
2023-01-31T03:47:33.697Z,22.9
2023-01-31T03:52:56.017Z,22.9
2023-01-31T03:58:18.851Z,22.9
2023-01-31T04:03:27.167Z,22.9
2023-01-31T04:08:50.255Z,22.9
2023-01-31T04:13:57.815Z,22.9
2023-01-31T04:19:21.337Z,22.9
2023-01-31T04:24:44.558Z,22.9
2023-01-31T04:30:07.922Z,22.9
2023-01-31T04:35:32.064Z,22.9
2023-01-31T04:40:55.022Z,22.9
2023-01-31T04:46:18.259Z,22.9
2023-01-31T04:51:41.557Z,22.9
2023-01-31T04:57:04.959Z,22.9
2023-01-31T05:02:28.239Z,22.9
2023-01-31T05:07:37.631Z,22.9
2023-01-31T05:13:01.074Z,22.9
2023-01-31T05:18:23.853Z,22.9
2023-01-31T05:23:47.286Z,22.9
2023-01-31T05:29:15.141Z,22.9
2023-01-31T05:34:42.284Z,22.9
2023-01-31T05:40:05.056Z,22.9
2023-01-31T05:45:28.050Z,22.8
2023-01-31T05:50:35.625Z,22.9
2023-01-31T05:55:59.154Z,22.9
2023-01-31T06:01:05.968Z,22.9
2023-01-31T06:06:15.493Z,22.8
2023-01-31T06:11:38.322Z,22.8
2023-01-31T06:17:02.049Z,22.9
2023-01-31T06:22:10.207Z,22.8
2023-01-31T06:27:33.173Z,22.8
2023-01-31T06:32:56.716Z,22.9
2023-01-31T06:38:33.711Z,22.9
2023-01-31T06:43:41.811Z,22.8
2023-01-31T06:48:50.797Z,22.9
2023-01-31T06:54:13.351Z,22.8
2023-01-31T06:59:37.335Z,22.8
2023-01-31T07:05:00.207Z,22.8
2023-01-31T07:10:23.467Z,22.8
2023-01-31T07:15:46.843Z,22.8
2023-01-31T07:21:09.296Z,22.8
2023-01-31T07:26:33.603Z,22.8
2023-01-31T07:32:55.141Z,22.8
2023-01-31T07:38:17.488Z,22.8
2023-01-31T07:43:41.122Z,22.8
2023-01-31T07:49:33.676Z,22.8
2023-01-31T07:54:56.874Z,22.8
2023-01-31T08:00:20.453Z,22.8
2023-01-31T08:05:51.369Z,22.8
2023-01-31T08:11:14.299Z,22.8
2023-01-31T08:16:36.849Z,22.8
2023-01-31T08:22:00.418Z,22.8
2023-01-31T08:27:24.783Z,22.8
2023-01-31T08:33:02.436Z,22.7
2023-01-31T08:38:38.009Z,22.7
2023-01-31T08:44:16.031Z,22.7
2023-01-31T08:49:24.771Z,22.6
2023-01-31T08:54:59.585Z,22.7
2023-01-31T09:00:36.025Z,22.7
2023-01-31T09:06:00.249Z,22.7
2023-01-31T09:11:23.569Z,22.7
2023-01-31T09:16:46.072Z,22.8
2023-01-31T09:21:54.088Z,22.7
2023-01-31T09:27:32.601Z,22.7
2023-01-31T09:32:56.424Z,22.7
2023-01-31T09:38:19.727Z,22.7
2023-01-31T09:43:42.727Z,22.7
2023-01-31T09:49:06.618Z,22.6
2023-01-31T09:54:30.720Z,22.6
2023-01-31T09:59:54.825Z,22.6
2023-01-31T10:05:18.500Z,22.6
2023-01-31T10:10:26.428Z,22.6
2023-01-31T10:15:35.594Z,22.6
2023-01-31T10:20:44.595Z,22.6
2023-01-31T10:25:53.751Z,22.6
2023-01-31T10:31:02.875Z,22.6
2023-01-31T10:36:10.154Z,22.6
2023-01-31T10:41:34.628Z,22.6
2023-01-31T10:46:57.597Z,22.6
2023-01-31T10:52:21.921Z,22.6
2023-01-31T10:57:45.429Z,22.6
2023-01-31T11:03:08.251Z,22.6
2023-01-31T11:08:14.948Z,22.6
2023-01-31T11:13:38.716Z,22.6
2023-01-31T11:19:01.339Z,22.6
2023-01-31T11:24:23.981Z,22.6
2023-01-31T11:29:46.894Z,22.6
2023-01-31T11:35:09.926Z,22.5
2023-01-31T11:40:16.725Z,22.6
2023-01-31T11:45:39.589Z,22.6
2023-01-31T11:51:05.636Z,22.5
2023-01-31T11:56:28.698Z,22.5
2023-01-31T12:01:52.038Z,22.5
2023-01-31T12:07:28.969Z,22.5
2023-01-31T12:12:51.298Z,22.5
2023-01-31T12:18:26.427Z,22.5
2023-01-31T12:23:52.147Z,22.5
2023-01-31T12:29:15.393Z,22.5
2023-01-31T12:34:47.139Z,22.4
2023-01-31T12:40:24.515Z,22.4
2023-01-31T12:45:47.881Z,22.4
2023-01-31T12:51:26.186Z,22.4
2023-01-31T12:56:49.651Z,22.4
2023-01-31T13:02:25.920Z,22.4
2023-01-31T13:07:49.678Z,22.4
2023-01-31T13:13:25.046Z,22.4
2023-01-31T13:18:32.665Z,22.4
2023-01-31T13:23:55.574Z,22.4
2023-01-31T13:29:18.516Z,22.4
2023-01-31T13:34:41.895Z,22.4
2023-01-31T13:40:05.003Z,22.4
2023-01-31T13:45:12.253Z,22.4
2023-01-31T13:50:36.059Z,22.4
2023-01-31T13:56:02.292Z,22.3
2023-01-31T14:01:11.631Z,22.4
2023-01-31T14:06:34.627Z,22.4
2023-01-31T14:11:58.693Z,22.3
2023-01-31T14:17:22.521Z,22.4
2023-01-31T14:22:45.483Z,22.3
2023-01-31T14:28:08.058Z,22.4
2023-01-31T14:33:33.585Z,22.3
2023-01-31T14:38:56.031Z,22.3
2023-01-31T14:44:19.222Z,22.3
2023-01-31T14:49:46.493Z,22.3
2023-01-31T14:55:08.793Z,22.3
2023-01-31T15:00:31.554Z,22.3
2023-01-31T15:05:53.959Z,22.3
2023-01-31T15:11:19.401Z,22.3
2023-01-31T15:17:01.349Z,22.2
2023-01-31T15:22:41.183Z,22.2
2023-01-31T15:28:03.951Z,22.2
2023-01-31T15:33:27.461Z,22.2
2023-01-31T15:38:34.371Z,22.3
2023-01-31T15:43:57.559Z,22.3
2023-01-31T15:49:36.833Z,22.3
2023-01-31T15:55:02.764Z,22.3
2023-01-31T16:00:26.969Z,22.3
2023-01-31T16:05:50.185Z,22.2
2023-01-31T16:10:46.983Z,22.2
2023-01-31T16:16:09.815Z,22.3
2023-01-31T16:21:33.115Z,22.2
2023-01-31T16:26:56.113Z,22.2
2023-01-31T16:32:20.468Z,22.3
2023-01-31T16:37:42.665Z,22.3
2023-01-31T16:43:05.028Z,22.3
2023-01-31T16:48:27.516Z,22.3
2023-01-31T16:54:06.721Z,22.2
2023-01-31T16:59:29.817Z,22.2
2023-01-31T17:04:53.489Z,22.3
2023-01-31T17:10:03.935Z,22.2
2023-01-31T17:15:26.386Z,22.3
2023-01-31T17:20:55.137Z,22.2
2023-01-31T17:26:30.549Z,22.2
2023-01-31T17:31:56.953Z,22.3
2023-01-31T17:37:30.237Z,22.3
2023-01-31T17:43:03.155Z,22.2
2023-01-31T17:48:26.484Z,22.3
2023-01-31T17:53:49.664Z,22.3
2023-01-31T17:59:27.128Z,22.3
2023-01-31T18:05:09.663Z,22.3
2023-01-31T18:10:41.063Z,22.3
2023-01-31T18:16:15.197Z,22.2
2023-01-31T18:21:55.135Z,22.3
2023-01-31T18:27:23.430Z,22.3
2023-01-31T18:32:59.258Z,22.3
2023-01-31T18:39:11.320Z,22.3
2023-01-31T18:44:27.875Z,22.3
2023-01-31T18:50:05.679Z,22.3
2023-01-31T18:55:41.698Z,22.3
2023-01-31T19:01:20.000Z,22.3
2023-01-31T19:06:37.576Z,22.3
2023-01-31T19:11:46.052Z,22.3
2023-01-31T19:16:51.486Z,22.3
2023-01-31T19:22:25.988Z,22.4
2023-01-31T19:27:48.917Z,22.4
2023-01-31T19:33:25.360Z,22.4
2023-01-31T19:39:03.033Z,22.4
2023-01-31T19:44:37.479Z,22.4
2023-01-31T19:50:23.449Z,22.4
2023-01-31T19:55:44.642Z,22.4
2023-01-31T20:00:51.876Z,22.4
2023-01-31T20:05:59.907Z,22.4
2023-01-31T20:11:22.831Z,22.5
2023-01-31T20:16:31.611Z,22.5
2023-01-31T20:21:40.783Z,22.5
2023-01-31T20:27:03.991Z,22.6
2023-01-31T20:32:27.149Z,22.5
2023-01-31T20:37:18.882Z,22.5
2023-01-31T20:42:42.295Z,22.5
2023-01-31T20:47:49.900Z,22.5
2023-01-31T20:52:59.100Z,22.5
2023-01-31T20:58:06.780Z,22.6
2023-01-31T21:03:29.762Z,22.6
2023-01-31T21:08:21.343Z,22.6
2023-01-31T21:13:44.598Z,22.6
2023-01-31T21:19:16.879Z,22.6
2023-01-31T21:24:40.230Z,22.6
2023-01-31T21:29:47.983Z,22.6
2023-01-31T21:35:12.291Z,22.6
2023-01-31T21:40:34.631Z,22.6
2023-01-31T21:45:41.715Z,22.7
2023-01-31T21:51:07.830Z,22.7
2023-01-31T21:56:15.281Z,22.8
2023-01-31T22:01:38.728Z,22.7
2023-01-31T22:06:46.241Z,22.8
2023-01-31T22:11:53.889Z,22.8
2023-01-31T22:17:19.149Z,22.8
2023-01-31T22:22:42.338Z,22.8
2023-01-31T22:28:05.240Z,22.8
2023-01-31T22:33:42.791Z,22.8
2023-01-31T22:39:05.800Z,22.8
2023-01-31T22:44:29.994Z,22.9
2023-01-31T22:49:53.345Z,22.8
2023-01-31T22:55:16.080Z,22.9
2023-01-31T23:00:38.660Z,22.8
2023-01-31T23:06:01.977Z,22.9
2023-01-31T23:11:08.818Z,22.9
2023-01-31T23:16:15.679Z,22.9
2023-01-31T23:21:22.974Z,22.9
2023-01-31T23:26:46.056Z,22.9
2023-01-31T23:32:10.079Z,22.9
2023-01-31T23:37:17.617Z,22.9
2023-01-31T23:42:25.128Z,22.9
2023-01-31T23:47:47.536Z,23
2023-01-31T23:53:10.213Z,23
2023-01-31T23:58:33.803Z,23
